Ashdale, OR

7:04 AM PST on March 03, 2015 (GMT -0800)
Oakgrove PO 1E (Milwaukie) | Change Station
CLOSE
Current Station
Personal Weather Station
Location: Portland, OR
Elevation: 335 ft
Nearby Weather Stations

Elev 335 ft 45.41 °N, 122.61 °W | Updated 22 seconds ago

Clear
Clear
36.5 °F
Feels Like 36 °F
N
1.2
Wind Variable Wind from North
Gusts 1.2 mph

Today
High -- | Low -- °F
--% Chance of Precip.
Yesterday
High -- | Low -- °F
Precip. -- in
6:45 AM 6:00 PM
Waxing Gibbous, 96% visible
Pressure 30.22 in
Visibility 10.0 miles
Clouds Few 5000 ft
Few 25000 ft
Windchill 36 °F
Dew Point 34 °F
Humidity 89%
Rainfall 0.00 in
Snow Depth Not available.
UV 0 out of 12
Pollen 5.00 out of 12
Air Quality Not available.
Flu Activity Not available.
METAR KPDX 031453Z 00000KT 10SM FEW050 FEW250 01/M01 A3022 RMK AO2 SLP234 T00061006 51011

More Conditions Fewer Conditions

Pressure 30.22 in
Visibility 10.0 miles
Clouds Few 5000 ft
Few 25000 ft
Windchill 36 °F
Dew Point 34 °F
Humidity 89%
Rainfall 0.00 in
Snow Depth Not available.
UV 0 out of 12
Pollen 5.00 out of 12
Air Quality Not available.
Flu Activity Not available.
METAR KPDX 031453Z 00000KT 10SM FEW050 FEW250 01/M01 A3022 RMK AO2 SLP234 T00061006 51011

More Conditions Fewer Conditions

10-Day Weather Forecast

Almanac

Astronomy

Mar. 03, 2015 Rise Set
Actual Time
Civil Twilight
Nautical Twilight
Astronomical Twilight
Moon
Length of Visible Light
Length of Day
Tomorrow will be .
, % of the Moon is Illuminated

Today's Extremes

State Highs State Lows

Community

WunderPhotos

Upload Photos

1,802,133 photos uploaded!

WunderBlogs® & News

Nearby

Air Quality

  Air Quality AQ Index Pollutant
Not available.

Snow Depth

Station Depth Elevation

Earthquake Activity

City Distance Mag. Time & Date
Minimum magnitude displayed is 2.5.

Coastal Water Temperatures

Place Temperature

Nearby Weather Stations